Time;durP1;ratioP1;P1;durP2;ratioP2;P2;SDS_P1;SDS_P2;PMS_P1;PMS_P2;Temp;Humidity;BMP_temperature;BMP_pressure;BME280_temperature;BME280_humidity;BME280_pressure;Samples;Min_cycle;Max_cycle;Signal;HPM_P1;HPM_P2
2022/08/03 00:04:45;;;;;;;1.10;1.00;;;;;;;;;;10507258;28;20300;-72
2022/08/03 00:09:46;;;;;;;0.98;0.98;;;;;;;;;;10491968;28;20202;-72
2022/08/03 00:14:47;;;;;;;1.95;1.13;;;;;;;;;;10511073;28;20205;-72
2022/08/03 00:19:48;;;;;;;1.75;1.05;;;;;;;;;;10491905;28;20209;-72
2022/08/03 00:24:51;;;;;;;1.77;1.02;;;;;;;;;;10505514;28;20238;-72
2022/08/03 00:29:53;;;;;;;2.25;1.13;;;;;;;;;;10484826;28;20241;-72
2022/08/03 00:34:54;;;;;;;4.18;1.20;;;;;;;;;;10507947;28;20776;-73
2022/08/03 00:39:55;;;;;;;2.53;1.20;;;;;;;;;;10509222;28;20715;-72
2022/08/03 00:44:56;;;;;;;1.20;1.20;;;;;;;;;;10510493;28;20217;-72
2022/08/03 00:49:57;;;;;;;0.93;0.93;;;;;;;;;;10507114;28;20210;-72
2022/08/03 00:55:00;;;;;;;1.70;0.93;;;;;;;;;;10505583;28;20210;-71
2022/08/03 01:00:01;;;;;;;4.15;1.02;;;;;;;;;;10507531;28;20732;-72
2022/08/03 01:05:02;;;;;;;0.82;0.82;;;;;;;;;;10498883;28;20209;-72
2022/08/03 01:10:09;;;;;;;3.17;1.02;;;;;;;;;;10486129;28;20206;-72
2022/08/03 01:15:33;;;;;;;1.00;1.00;;;;;;;;;;10487916;28;20734;-71
2022/08/03 01:20:36;;;;;;;2.42;1.23;;;;;;;;;;10509005;28;20340;-72
2022/08/03 01:25:55;;;;;;;3.17;1.17;;;;;;;;;;10505882;28;20193;-72
2022/08/03 01:31:03;;;;;;;3.17;1.13;;;;;;;;;;10502801;28;20222;-72
2022/08/03 01:36:06;;;;;;;1.85;1.27;;;;;;;;;;10508203;28;20386;-72
2022/08/03 01:41:10;;;;;;;1.30;1.30;;;;;;;;;;10506738;28;20229;-72
2022/08/03 01:46:11;;;;;;;1.50;1.08;;;;;;;;;;10491795;28;20197;-72
2022/08/03 01:51:13;;;;;;;2.58;1.13;;;;;;;;;;10490896;28;20217;-72
2022/08/03 01:56:15;;;;;;;1.25;1.25;;;;;;;;;;10507013;28;20181;-72
2022/08/03 02:01:17;;;;;;;3.05;1.35;;;;;;;;;;10503150;28;20259;-72
2022/08/03 02:06:20;;;;;;;3.33;1.13;;;;;;;;;;10504687;28;20227;-72
2022/08/03 02:11:21;;;;;;;1.13;1.13;;;;;;;;;;10506659;28;20210;-72
2022/08/03 02:16:23;;;;;;;1.52;1.40;;;;;;;;;;10488911;28;20719;-72
2022/08/03 02:21:24;;;;;;;7.93;2.40;;;;;;;;;;10502392;28;20368;-72
2022/08/03 02:26:28;;;;;;;3.85;1.77;;;;;;;;;;10502136;28;20197;-71
2022/08/03 02:31:32;;;;;;;2.13;1.95;;;;;;;;;;10501751;28;20238;-72
2022/08/03 02:36:36;;;;;;;11.70;2.00;;;;;;;;;;10489552;28;20194;-72
2022/08/03 02:41:47;;;;;;;8.85;1.20;;;;;;;;;;10504733;28;20320;-72
2022/08/03 02:46:48;;;;;;;1.73;0.75;;;;;;;;;;10509880;28;20263;-72
2022/08/03 02:51:51;;;;;;;0.70;0.70;;;;;;;;;;10495270;28;20747;-72
2022/08/03 02:56:54;;;;;;;0.40;0.40;;;;;;;;;;10510256;28;20182;-71
2022/08/03 03:01:55;;;;;;;0.28;0.28;;;;;;;;;;10512989;28;20718;-70
2022/08/03 03:06:57;;;;;;;0.20;0.20;;;;;;;;;;10512779;28;20215;-72
2022/08/03 03:11:59;;;;;;;0.20;0.20;;;;;;;;;;10512063;28;20766;-71
2022/08/03 03:17:01;;;;;;;0.30;0.20;;;;;;;;;;10510188;28;20263;-71
2022/08/03 03:22:03;;;;;;;0.30;0.30;;;;;;;;;;10513624;28;20751;-71
2022/08/03 03:27:04;;;;;;;0.25;0.25;;;;;;;;;;10512614;28;20201;-71
2022/08/03 03:32:06;;;;;;;0.40;0.40;;;;;;;;;;10508474;28;20768;-71
2022/08/03 03:37:07;;;;;;;0.20;0.20;;;;;;;;;;10493677;28;20169;-71
2022/08/03 03:42:08;;;;;;;0.20;0.20;;;;;;;;;;10509854;28;20217;-70
2022/08/03 03:47:09;;;;;;;0.20;0.20;;;;;;;;;;10512239;28;20219;-71
2022/08/03 03:52:10;;;;;;;0.20;0.20;;;;;;;;;;10509306;28;20203;-71
2022/08/03 03:57:11;;;;;;;0.17;0.17;;;;;;;;;;10513778;28;20178;-71
2022/08/03 04:02:12;;;;;;;0.30;0.30;;;;;;;;;;10511458;28;20246;-72
2022/08/03 04:12:36;;;;;;;0.20;0.20;;;;;;;;;;10509983;28;20627;-72
2022/08/03 04:17:37;;;;;;;0.20;0.20;;;;;;;;;;10492450;28;20293;-72
2022/08/03 04:22:39;;;;;;;0.10;0.10;;;;;;;;;;10507905;28;20283;-71
2022/08/03 04:27:41;;;;;;;0.20;0.20;;;;;;;;;;10489876;28;20201;-70
2022/08/03 04:32:44;;;;;;;0.25;0.25;;;;;;;;;;10510640;28;20328;-72
2022/08/03 04:37:46;;;;;;;0.20;0.20;;;;;;;;;;10495908;28;20796;-71
2022/08/03 04:42:48;;;;;;;0.10;0.10;;;;;;;;;;10509706;28;20252;-72
2022/08/03 04:47:50;;;;;;;0.20;0.20;;;;;;;;;;10513000;28;20236;-71
2022/08/03 04:52:51;;;;;;;0.10;0.10;;;;;;;;;;10509755;28;20209;-71
2022/08/03 04:57:52;;;;;;;0.20;0.20;;;;;;;;;;10512395;28;20653;-72
2022/08/03 05:02:53;;;;;;;0.10;0.10;;;;;;;;;;10489705;28;20214;-73
2022/08/03 05:07:55;;;;;;;0.13;0.13;;;;;;;;;;10491561;28;20206;-72
2022/08/03 05:12:56;;;;;;;0.20;0.20;;;;;;;;;;10490979;28;20297;-72
2022/08/03 05:17:57;;;;;;;0.20;0.20;;;;;;;;;;10507428;28;20775;-72
2022/08/03 05:23:00;;;;;;;0.10;0.10;;;;;;;;;;10505963;28;20218;-72
2022/08/03 05:28:01;;;;;;;0.10;0.10;;;;;;;;;;10508519;28;20201;-72
2022/08/03 05:33:03;;;;;;;0.10;0.10;;;;;;;;;;10487635;28;20210;-71
2022/08/03 05:38:04;;;;;;;1.30;0.20;;;;;;;;;;10501597;28;20181;-72
2022/08/03 08:26:17;;;;;;;0.10;0.10;;;;;;;;;;10477994;28;20236;-73
2022/08/03 08:31:18;;;;;;;0.20;0.20;;;;;;;;;;10470353;28;20210;-72
2022/08/03 08:36:19;;;;;;;0.20;0.20;;;;;;;;;;10469604;28;20654;-74
2022/08/03 08:41:20;;;;;;;0.10;0.10;;;;;;;;;;10484469;28;20617;-73
2022/08/03 08:46:21;;;;;;;0.20;0.20;;;;;;;;;;10470564;28;20781;-73
2022/08/03 08:51:27;;;;;;;0.20;0.20;;;;;;;;;;10478075;28;20214;-73
2022/08/03 08:56:28;;;;;;;0.10;0.10;;;;;;;;;;10468312;28;20247;-72
2022/08/03 09:01:29;;;;;;;0.10;0.10;;;;;;;;;;10455687;28;20204;-73
2022/08/03 09:06:31;;;;;;;0.20;0.20;;;;;;;;;;10460739;28;20200;-72
2022/08/03 09:11:32;;;;;;;0.10;0.10;;;;;;;;;;10458229;28;20206;-73
2022/08/03 09:16:33;;;;;;;0.40;0.20;;;;;;;;;;10456423;28;20285;-75
2022/08/03 09:21:34;;;;;;;0.10;0.10;;;;;;;;;;10487823;28;20336;-73
2022/08/03 09:26:35;;;;;;;0.20;0.20;;;;;;;;;;10526848;28;20618;-73
2022/08/03 09:31:41;;;;;;;0.20;0.20;;;;;;;;;;10530324;28;20210;-74
2022/08/03 09:36:44;;;;;;;0.22;0.22;;;;;;;;;;10530410;28;20270;-74
2022/08/03 09:41:47;;;;;;;0.10;0.10;;;;;;;;;;10517797;28;20248;-73
2022/08/03 09:46:49;;;;;;;0.10;0.10;;;;;;;;;;10525792;28;20221;-74
2022/08/03 09:51:50;;;;;;;0.20;0.20;;;;;;;;;;10518809;28;20636;-73
2022/08/03 09:56:51;;;;;;;0.10;0.10;;;;;;;;;;10528872;28;20177;-75
2022/08/03 10:01:53;;;;;;;0.20;0.20;;;;;;;;;;10526750;28;20796;-76
2022/08/03 10:07:08;;;;;;;0.20;0.20;;;;;;;;;;10528214;28;20228;-73
2022/08/03 10:12:10;;;;;;;0.20;0.20;;;;;;;;;;10516804;28;20209;-73
2022/08/03 10:17:11;;;;;;;0.10;0.10;;;;;;;;;;10517581;28;20213;-72
2022/08/03 10:22:14;;;;;;;0.10;0.10;;;;;;;;;;10509733;28;20258;-72
2022/08/03 10:27:16;;;;;;;0.10;0.10;;;;;;;;;;10519655;28;20197;-74
2022/08/03 10:32:30;;;;;;;0.10;0.10;;;;;;;;;;10514163;28;20209;-73
2022/08/03 10:37:32;;;;;;;0.13;0.13;;;;;;;;;;10522320;28;20669;-73
2022/08/03 10:42:34;;;;;;;0.20;0.20;;;;;;;;;;10528702;28;20235;-73
2022/08/03 10:47:36;;;;;;;0.10;0.10;;;;;;;;;;10505489;28;20717;-72
2022/08/03 10:52:53;;;;;;;0.15;0.15;;;;;;;;;;10517547;28;20648;-73
2022/08/03 10:57:54;;;;;;;0.10;0.10;;;;;;;;;;10509554;28;21398;-73
2022/08/03 11:03:05;;;;;;;0.20;0.20;;;;;;;;;;10504426;28;20212;-75
2022/08/03 11:08:26;;;;;;;0.20;0.20;;;;;;;;;;10511765;28;20201;-72
2022/08/03 11:13:32;;;;;;;0.15;0.15;;;;;;;;;;10523012;28;20211;-69
2022/08/03 11:18:33;;;;;;;0.20;0.20;;;;;;;;;;10518222;28;20266;-71
2022/08/03 11:23:41;;;;;;;0.20;0.20;;;;;;;;;;10525553;28;20238;-70
2022/08/03 11:28:44;;;;;;;0.10;0.10;;;;;;;;;;10514851;28;20212;-71
2022/08/03 11:34:03;;;;;;;0.20;0.20;;;;;;;;;;10532065;28;20217;-71
2022/08/03 11:39:14;;;;;;;0.20;0.20;;;;;;;;;;10526195;28;20892;-72
2022/08/03 11:44:39;;;;;;;0.20;0.20;;;;;;;;;;10522453;28;20254;-72
2022/08/03 11:49:40;;;;;;;0.20;0.20;;;;;;;;;;10526496;28;20208;-72
2022/08/03 11:54:42;;;;;;;0.17;0.17;;;;;;;;;;10526697;28;20250;-72
2022/08/03 11:59:43;;;;;;;0.17;0.17;;;;;;;;;;10520897;28;20327;-73
2022/08/03 12:04:57;;;;;;;0.20;0.20;;;;;;;;;;10523276;28;21076;-74
2022/08/03 12:10:11;;;;;;;0.10;0.10;;;;;;;;;;10524695;28;20208;-71
2022/08/03 12:15:13;;;;;;;0.20;0.20;;;;;;;;;;10527249;28;20557;-73
2022/08/03 12:20:21;;;;;;;0.10;0.10;;;;;;;;;;10528810;28;20213;-71
2022/08/03 12:25:23;;;;;;;0.20;0.20;;;;;;;;;;10533156;28;20225;-71
2022/08/03 12:30:25;;;;;;;0.15;0.15;;;;;;;;;;10530406;28;20213;-70
2022/08/03 12:35:26;;;;;;;0.20;0.20;;;;;;;;;;10513949;28;20185;-72
2022/08/03 12:40:27;;;;;;;0.22;0.22;;;;;;;;;;10500434;28;20187;-70
2022/08/03 12:45:33;;;;;;;0.20;0.20;;;;;;;;;;10523206;28;20181;-72
2022/08/03 12:50:35;;;;;;;0.20;0.20;;;;;;;;;;10520772;28;20283;-73
2022/08/03 12:56:02;;;;;;;0.20;0.20;;;;;;;;;;10509783;28;20197;-74
2022/08/03 13:01:04;;;;;;;0.20;0.20;;;;;;;;;;10489366;28;20673;-72
2022/08/03 13:06:13;;;;;;;0.20;0.20;;;;;;;;;;10527807;28;20178;-72
2022/08/03 13:11:24;;;;;;;0.10;0.10;;;;;;;;;;10535412;28;20216;-73
2022/08/03 13:16:25;;;;;;;0.20;0.20;;;;;;;;;;10525056;28;20225;-71
2022/08/03 13:21:26;;;;;;;0.20;0.20;;;;;;;;;;10528840;28;20613;-71
2022/08/03 13:26:27;;;;;;;0.20;0.20;;;;;;;;;;10520161;28;20180;-72
2022/08/03 13:31:28;;;;;;;0.20;0.20;;;;;;;;;;10529522;28;20630;-72
2022/08/03 13:36:29;;;;;;;0.20;0.20;;;;;;;;;;10517197;28;20900;-71
2022/08/03 13:41:30;;;;;;;0.13;0.13;;;;;;;;;;10543546;28;20200;-72
2022/08/03 13:46:32;;;;;;;0.20;0.20;;;;;;;;;;10530635;28;20738;-72
2022/08/03 13:51:33;;;;;;;0.10;0.10;;;;;;;;;;10521599;28;20200;-71
2022/08/03 13:56:34;;;;;;;0.20;0.20;;;;;;;;;;10535263;28;20555;-71
2022/08/03 14:01:35;;;;;;;0.20;0.20;;;;;;;;;;10539222;28;20246;-72
2022/08/03 14:06:36;;;;;;;0.20;0.20;;;;;;;;;;10520087;28;20208;-72
2022/08/03 14:11:37;;;;;;;0.20;0.20;;;;;;;;;;10543002;28;20200;-70
2022/08/03 14:16:39;;;;;;;0.20;0.20;;;;;;;;;;10530512;28;20231;-70
2022/08/03 14:21:40;;;;;;;0.20;0.20;;;;;;;;;;10533332;28;20230;-71
2022/08/03 14:26:41;;;;;;;0.20;0.20;;;;;;;;;;10534736;28;20241;-71
2022/08/03 14:31:42;;;;;;;0.30;0.30;;;;;;;;;;10529609;28;20218;-70
2022/08/03 14:36:43;;;;;;;0.20;0.20;;;;;;;;;;10503902;28;20180;-70
2022/08/03 14:41:44;;;;;;;0.20;0.20;;;;;;;;;;10539560;28;20267;-70
2022/08/03 14:46:45;;;;;;;0.20;0.20;;;;;;;;;;10530276;28;20188;-71
2022/08/03 14:51:46;;;;;;;0.20;0.20;;;;;;;;;;10530931;28;20258;-73
2022/08/03 14:56:47;;;;;;;0.10;0.10;;;;;;;;;;10503637;28;20258;-70
2022/08/03 15:01:48;;;;;;;0.30;0.30;;;;;;;;;;10528690;28;20300;-70
2022/08/03 15:06:50;;;;;;;0.20;0.20;;;;;;;;;;10497898;28;20188;-71
2022/08/03 15:11:51;;;;;;;0.15;0.15;;;;;;;;;;10528703;28;20209;-70
2022/08/03 15:16:52;;;;;;;0.20;0.20;;;;;;;;;;10532892;28;20188;-71
2022/08/03 15:21:53;;;;;;;0.20;0.20;;;;;;;;;;10532375;28;20235;-72
2022/08/03 15:26:54;;;;;;;0.20;0.20;;;;;;;;;;10535529;28;20267;-71
2022/08/03 15:31:55;;;;;;;0.20;0.20;;;;;;;;;;10523716;28;20223;-70
2022/08/03 15:36:56;;;;;;;0.20;0.20;;;;;;;;;;10492868;28;20177;-70
2022/08/03 15:41:57;;;;;;;0.20;0.20;;;;;;;;;;10508477;28;20204;-70
2022/08/03 15:46:58;;;;;;;0.20;0.20;;;;;;;;;;10518758;28;20247;-70
2022/08/03 15:52:00;;;;;;;0.30;0.30;;;;;;;;;;10537464;28;20200;-70
2022/08/03 15:57:01;;;;;;;0.20;0.20;;;;;;;;;;10533182;28;20795;-71
2022/08/03 16:02:02;;;;;;;0.10;0.10;;;;;;;;;;10531620;28;20373;-71
2022/08/03 16:07:03;;;;;;;0.17;0.17;;;;;;;;;;10518648;28;20291;-70
2022/08/03 16:12:04;;;;;;;0.15;0.15;;;;;;;;;;10525928;28;20819;-71
2022/08/03 16:17:05;;;;;;;0.20;0.20;;;;;;;;;;10538665;28;20652;-70
2022/08/03 16:22:07;;;;;;;0.20;0.20;;;;;;;;;;10532714;28;20228;-70
2022/08/03 16:27:08;;;;;;;0.20;0.20;;;;;;;;;;10542635;28;20225;-71
2022/08/03 16:32:10;;;;;;;0.20;0.20;;;;;;;;;;10536161;28;20251;-72
2022/08/03 16:37:11;;;;;;;0.20;0.20;;;;;;;;;;10546389;28;20185;-71
2022/08/03 16:42:12;;;;;;;0.20;0.20;;;;;;;;;;10533013;28;20834;-71
2022/08/03 16:47:13;;;;;;;0.20;0.20;;;;;;;;;;10542396;28;20201;-71
2022/08/03 16:52:14;;;;;;;0.10;0.10;;;;;;;;;;10513309;28;20217;-71
2022/08/03 16:57:15;;;;;;;0.20;0.20;;;;;;;;;;10533622;28;20193;-71
2022/08/03 17:02:23;;;;;;;0.20;0.20;;;;;;;;;;10521331;28;20210;-71
2022/08/03 17:07:24;;;;;;;0.17;0.17;;;;;;;;;;10536536;28;20192;-71
2022/08/03 17:12:26;;;;;;;0.13;0.13;;;;;;;;;;10541605;28;20205;-69
2022/08/03 17:17:32;;;;;;;0.10;0.10;;;;;;;;;;10505227;28;20928;-72
2022/08/03 17:22:33;;;;;;;0.20;0.20;;;;;;;;;;10540013;28;20232;-71
2022/08/03 17:27:39;;;;;;;0.30;0.30;;;;;;;;;;10541801;28;20227;-72
2022/08/03 17:32:45;;;;;;;0.32;0.32;;;;;;;;;;10507563;28;20829;-70
2022/08/03 17:37:46;;;;;;;0.30;0.30;;;;;;;;;;10520885;28;20188;-70
2022/08/03 17:42:48;;;;;;;0.40;0.40;;;;;;;;;;10526190;28;20983;-69
2022/08/03 17:47:49;;;;;;;0.30;0.30;;;;;;;;;;10534941;28;20234;-69
2022/08/03 17:52:50;;;;;;;0.30;0.30;;;;;;;;;;10502803;28;20672;-70
2022/08/03 17:57:53;;;;;;;0.30;0.30;;;;;;;;;;10517102;28;20712;-68
2022/08/03 18:03:17;;;;;;;0.30;0.30;;;;;;;;;;10508143;28;20776;-69
2022/08/03 18:08:28;;;;;;;0.30;0.30;;;;;;;;;;10519668;28;20260;-68
2022/08/03 18:13:30;;;;;;;0.30;0.30;;;;;;;;;;10517760;28;20206;-70
2022/08/03 18:18:36;;;;;;;0.22;0.22;;;;;;;;;;10490195;28;20204;-67
2022/08/03 18:23:37;;;;;;;0.30;0.30;;;;;;;;;;10486132;28;20247;-68
2022/08/03 18:28:42;;;;;;;0.20;0.20;;;;;;;;;;10485335;28;20210;-71
2022/08/03 18:33:44;;;;;;;0.30;0.30;;;;;;;;;;10489075;28;20286;-70
2022/08/03 18:38:47;;;;;;;0.20;0.20;;;;;;;;;;10464751;28;20228;-70
2022/08/03 18:43:48;;;;;;;0.30;0.30;;;;;;;;;;10493218;28;20266;-71
2022/08/03 18:48:59;;;;;;;0.30;0.30;;;;;;;;;;10494973;28;20222;-70
2022/08/03 18:54:06;;;;;;;0.30;0.30;;;;;;;;;;10478006;28;20229;-70
2022/08/03 18:59:23;;;;;;;0.20;0.20;;;;;;;;;;10485495;28;20186;-69
2022/08/03 19:04:25;;;;;;;0.20;0.20;;;;;;;;;;10485688;28;20217;-70
2022/08/03 19:09:30;;;;;;;0.20;0.20;;;;;;;;;;10456895;28;20212;-71
2022/08/03 19:14:37;;;;;;;0.30;0.30;;;;;;;;;;10490345;28;20223;-71
2022/08/03 19:19:41;;;;;;;0.30;0.30;;;;;;;;;;10451466;28;20213;-70
2022/08/03 19:24:44;;;;;;;0.15;0.15;;;;;;;;;;10511323;28;20243;-71
2022/08/03 19:29:47;;;;;;;0.28;0.28;;;;;;;;;;10541437;28;20205;-71
2022/08/03 19:34:48;;;;;;;0.22;0.22;;;;;;;;;;10538663;28;20213;-71
2022/08/03 19:39:50;;;;;;;1.20;0.82;;;;;;;;;;10536077;28;20185;-71
2022/08/03 19:44:54;;;;;;;0.50;0.50;;;;;;;;;;10526575;28;20219;-72
2022/08/03 19:49:57;;;;;;;0.50;0.50;;;;;;;;;;10533199;28;20209;-71
2022/08/03 19:54:59;;;;;;;0.57;0.57;;;;;;;;;;10500034;28;20220;-72
2022/08/03 20:00:01;;;;;;;0.60;0.60;;;;;;;;;;10535348;28;20250;-71
2022/08/03 20:05:06;;;;;;;0.60;0.60;;;;;;;;;;10501823;28;21101;-71
2022/08/03 20:10:08;;;;;;;0.98;0.98;;;;;;;;;;10505312;28;20205;-71
2022/08/03 20:15:09;;;;;;;0.50;0.50;;;;;;;;;;10537970;28;20716;-71
2022/08/03 20:20:10;;;;;;;0.50;0.50;;;;;;;;;;10532987;28;20201;-72
2022/08/03 20:25:12;;;;;;;0.60;0.60;;;;;;;;;;10528599;28;20257;-71
2022/08/03 20:30:13;;;;;;;0.60;0.60;;;;;;;;;;10531232;28;20576;-70
2022/08/03 20:35:15;;;;;;;0.55;0.55;;;;;;;;;;10538641;28;20207;-71
2022/08/03 20:40:16;;;;;;;0.60;0.60;;;;;;;;;;10533794;28;20268;-71
2022/08/03 20:45:17;;;;;;;0.47;0.47;;;;;;;;;;10535909;28;20246;-70
2022/08/03 20:50:20;;;;;;;0.50;0.50;;;;;;;;;;10534513;28;20445;-71
2022/08/03 20:55:21;;;;;;;0.60;0.60;;;;;;;;;;10533762;28;20264;-71
2022/08/03 21:00:23;;;;;;;0.52;0.52;;;;;;;;;;10499288;28;20200;-70
2022/08/03 21:05:24;;;;;;;0.70;0.70;;;;;;;;;;10536996;28;20174;-69
2022/08/03 21:10:26;;;;;;;0.57;0.57;;;;;;;;;;10525510;28;20228;-70
2022/08/03 21:15:28;;;;;;;0.60;0.60;;;;;;;;;;10501312;28;20182;-71
2022/08/03 21:20:33;;;;;;;0.60;0.60;;;;;;;;;;10528099;28;20275;-71
2022/08/03 21:25:35;;;;;;;0.45;0.45;;;;;;;;;;10529192;28;20316;-70
2022/08/03 21:30:36;;;;;;;0.57;0.57;;;;;;;;;;10526179;28;20212;-70
2022/08/03 21:35:37;;;;;;;0.65;0.65;;;;;;;;;;10531639;28;20571;-70
2022/08/03 21:40:39;;;;;;;0.60;0.55;;;;;;;;;;10527501;28;20295;-70
2022/08/03 21:45:49;;;;;;;1.95;0.63;;;;;;;;;;10540513;28;20185;-70
2022/08/03 21:50:51;;;;;;;0.50;0.50;;;;;;;;;;10504777;28;20228;-69
2022/08/03 21:56:03;;;;;;;0.50;0.50;;;;;;;;;;10530917;28;20205;-70
2022/08/03 22:01:04;;;;;;;0.50;0.50;;;;;;;;;;10527898;28;20242;-70
2022/08/03 22:06:05;;;;;;;0.60;0.60;;;;;;;;;;10529052;28;20186;-70
2022/08/03 22:11:08;;;;;;;0.50;0.50;;;;;;;;;;10507486;28;20250;-69
2022/08/03 22:16:09;;;;;;;1.30;0.60;;;;;;;;;;10498770;28;20178;-69
2022/08/03 22:21:11;;;;;;;0.60;0.60;;;;;;;;;;10527450;28;21203;-70
2022/08/03 22:26:14;;;;;;;0.60;0.60;;;;;;;;;;10521176;28;20902;-70
2022/08/03 22:31:15;;;;;;;0.60;0.60;;;;;;;;;;10531569;28;20358;-70
2022/08/03 22:36:17;;;;;;;0.50;0.50;;;;;;;;;;10501726;28;20264;-70
2022/08/03 22:41:19;;;;;;;0.60;0.60;;;;;;;;;;10533950;28;20295;-70
2022/08/03 22:46:21;;;;;;;0.60;0.60;;;;;;;;;;10503168;28;20644;-70
2022/08/03 22:51:22;;;;;;;0.70;0.70;;;;;;;;;;10499224;28;20217;-70
2022/08/03 22:56:23;;;;;;;0.55;0.55;;;;;;;;;;10534384;28;20185;-70
2022/08/03 23:01:25;;;;;;;0.60;0.60;;;;;;;;;;10501835;28;20300;-71
2022/08/03 23:06:31;;;;;;;0.60;0.60;;;;;;;;;;10501651;28;20177;-70
2022/08/03 23:11:34;;;;;;;0.80;0.80;;;;;;;;;;10535970;28;20224;-70
2022/08/03 23:16:38;;;;;;;0.60;0.60;;;;;;;;;;10543278;28;20182;-71
2022/08/03 23:21:39;;;;;;;0.70;0.70;;;;;;;;;;10538654;28;20228;-70
2022/08/03 23:26:40;;;;;;;0.60;0.60;;;;;;;;;;10535472;28;20185;-70
2022/08/03 23:31:43;;;;;;;0.70;0.70;;;;;;;;;;10534713;28;20210;-70
2022/08/03 23:36:46;;;;;;;0.50;0.50;;;;;;;;;;10535491;28;20214;-70
2022/08/03 23:41:48;;;;;;;0.52;0.52;;;;;;;;;;10499666;28;20584;-70
2022/08/03 23:46:49;;;;;;;0.60;0.60;;;;;;;;;;10532361;28;20245;-70
2022/08/03 23:51:50;;;;;;;0.60;0.60;;;;;;;;;;10521149;28;20840;-70
2022/08/03 23:57:08;;;;;;;0.85;0.80;;;;;;;;;;10532201;28;20202;-70
